sensor_id;sensor_type;location;lat;lon;timestamp;temperature;humidity
15749;DHT22;7976;52.526;13.326;2023-08-31T00:01:03;16.90;99.90
15749;DHT22;7976;52.526;13.326;2023-08-31T00:03:30;17.00;99.90
15749;DHT22;7976;52.526;13.326;2023-08-31T00:05:57;17.00;99.90
15749;DHT22;7976;52.526;13.326;2023-08-31T00:08:27;17.00;99.90
15749;DHT22;7976;52.526;13.326;2023-08-31T00:10:57;16.90;99.90
15749;DHT22;7976;52.526;13.326;2023-08-31T00:13:26;16.90;99.90
15749;DHT22;7976;52.526;13.326;2023-08-31T00:15:54;17.00;99.90
15749;DHT22;7976;52.526;13.326;2023-08-31T00:18:24;17.00;99.90
15749;DHT22;7976;52.526;13.326;2023-08-31T00:20:52;17.00;99.90
15749;DHT22;7976;52.526;13.326;2023-08-31T00:23:19;17.00;99.90
15749;DHT22;7976;52.526;13.326;2023-08-31T00:25:46;16.90;99.90
15749;DHT22;7976;52.526;13.326;2023-08-31T00:28:14;16.90;99.90
15749;DHT22;7976;52.526;13.326;2023-08-31T00:30:43;17.00;99.90
15749;DHT22;7976;52.526;13.326;2023-08-31T00:33:12;17.00;99.90
15749;DHT22;7976;52.526;13.326;2023-08-31T00:35:41;16.90;99.90
15749;DHT22;7976;52.526;13.326;2023-08-31T00:38:11;16.90;99.90
15749;DHT22;7976;52.526;13.326;2023-08-31T00:40:41;16.90;99.90
15749;DHT22;7976;52.526;13.326;2023-08-31T00:43:11;16.90;99.90
15749;DHT22;7976;52.526;13.326;2023-08-31T00:45:38;16.90;99.90
15749;DHT22;7976;52.526;13.326;2023-08-31T00:48:06;16.90;99.90
15749;DHT22;7976;52.526;13.326;2023-08-31T00:50:33;16.90;99.90
15749;DHT22;7976;52.526;13.326;2023-08-31T00:53:02;16.90;99.90
15749;DHT22;7976;52.526;13.326;2023-08-31T00:55:32;16.80;99.90
15749;DHT22;7976;52.526;13.326;2023-08-31T00:57:59;16.80;99.90
15749;DHT22;7976;52.526;13.326;2023-08-31T01:00:32;16.80;99.90
15749;DHT22;7976;52.526;13.326;2023-08-31T01:03:13;16.80;99.90
15749;DHT22;7976;52.526;13.326;2023-08-31T01:05:51;16.80;99.90
15749;DHT22;7976;52.526;13.326;2023-08-31T01:08:33;16.70;99.90
15749;DHT22;7976;52.526;13.326;2023-08-31T01:11:13;16.70;99.90
15749;DHT22;7976;52.526;13.326;2023-08-31T01:13:53;16.70;99.90
15749;DHT22;7976;52.526;13.326;2023-08-31T01:16:29;16.60;99.90
15749;DHT22;7976;52.526;13.326;2023-08-31T01:19:01;16.60;99.90
15749;DHT22;7976;52.526;13.326;2023-08-31T01:21:38;16.50;99.90
15749;DHT22;7976;52.526;13.326;2023-08-31T01:24:10;16.50;99.90
15749;DHT22;7976;52.526;13.326;2023-08-31T01:26:39;16.50;99.90
15749;DHT22;7976;52.526;13.326;2023-08-31T01:29:08;16.50;99.90
15749;DHT22;7976;52.526;13.326;2023-08-31T01:31:41;16.40;99.90
15749;DHT22;7976;52.526;13.326;2023-08-31T01:34:09;16.40;99.90
15749;DHT22;7976;52.526;13.326;2023-08-31T01:36:41;16.40;99.90
15749;DHT22;7976;52.526;13.326;2023-08-31T01:39:17;16.40;99.90
15749;DHT22;7976;52.526;13.326;2023-08-31T01:41:53;16.30;99.90
15749;DHT22;7976;52.526;13.326;2023-08-31T01:44:23;16.30;99.90
15749;DHT22;7976;52.526;13.326;2023-08-31T01:46:53;16.30;99.90
15749;DHT22;7976;52.526;13.326;2023-08-31T01:49:23;16.30;99.90
15749;DHT22;7976;52.526;13.326;2023-08-31T01:51:50;16.20;99.90
15749;DHT22;7976;52.526;13.326;2023-08-31T01:54:19;16.20;99.90
15749;DHT22;7976;52.526;13.326;2023-08-31T01:56:45;16.20;99.90
15749;DHT22;7976;52.526;13.326;2023-08-31T01:59:12;16.20;99.90
15749;DHT22;7976;52.526;13.326;2023-08-31T02:01:39;16.10;99.90
15749;DHT22;7976;52.526;13.326;2023-08-31T02:04:06;16.10;99.90
15749;DHT22;7976;52.526;13.326;2023-08-31T02:06:33;16.00;99.90
15749;DHT22;7976;52.526;13.326;2023-08-31T02:09:00;15.90;99.90
15749;DHT22;7976;52.526;13.326;2023-08-31T02:11:28;15.80;99.90
15749;DHT22;7976;52.526;13.326;2023-08-31T02:13:57;15.70;99.90
15749;DHT22;7976;52.526;13.326;2023-08-31T02:16:24;15.60;99.90
15749;DHT22;7976;52.526;13.326;2023-08-31T02:18:51;15.50;99.90
15749;DHT22;7976;52.526;13.326;2023-08-31T02:21:18;15.40;99.90
15749;DHT22;7976;52.526;13.326;2023-08-31T02:23:45;15.40;99.90
15749;DHT22;7976;52.526;13.326;2023-08-31T02:26:12;15.40;99.90
15749;DHT22;7976;52.526;13.326;2023-08-31T02:28:40;15.30;99.90
15749;DHT22;7976;52.526;13.326;2023-08-31T02:31:10;15.30;99.90
15749;DHT22;7976;52.526;13.326;2023-08-31T02:33:37;15.30;99.90
15749;DHT22;7976;52.526;13.326;2023-08-31T02:36:04;15.30;99.90
15749;DHT22;7976;52.526;13.326;2023-08-31T02:38:31;15.30;99.90
15749;DHT22;7976;52.526;13.326;2023-08-31T02:40:58;15.40;99.90
15749;DHT22;7976;52.526;13.326;2023-08-31T02:43:25;15.40;99.90
15749;DHT22;7976;52.526;13.326;2023-08-31T02:46:00;15.30;99.90
15749;DHT22;7976;52.526;13.326;2023-08-31T02:48:27;15.30;99.90
15749;DHT22;7976;52.526;13.326;2023-08-31T02:50:56;15.30;99.90
15749;DHT22;7976;52.526;13.326;2023-08-31T02:53:23;15.30;99.90
15749;DHT22;7976;52.526;13.326;2023-08-31T02:55:50;15.30;99.90
15749;DHT22;7976;52.526;13.326;2023-08-31T02:58:17;15.30;99.90
15749;DHT22;7976;52.526;13.326;2023-08-31T03:00:44;15.30;99.90
15749;DHT22;7976;52.526;13.326;2023-08-31T03:03:15;15.30;99.90
15749;DHT22;7976;52.526;13.326;2023-08-31T03:05:43;15.30;99.90
15749;DHT22;7976;52.526;13.326;2023-08-31T03:08:10;15.30;99.90
15749;DHT22;7976;52.526;13.326;2023-08-31T03:10:38;15.20;99.90
15749;DHT22;7976;52.526;13.326;2023-08-31T03:13:05;15.20;99.90
15749;DHT22;7976;52.526;13.326;2023-08-31T03:15:33;15.20;99.90
15749;DHT22;7976;52.526;13.326;2023-08-31T03:18:00;15.20;99.90
15749;DHT22;7976;52.526;13.326;2023-08-31T03:20:28;15.20;99.90
15749;DHT22;7976;52.526;13.326;2023-08-31T03:22:55;15.20;99.90
15749;DHT22;7976;52.526;13.326;2023-08-31T03:25:23;15.20;99.90
15749;DHT22;7976;52.526;13.326;2023-08-31T03:27:50;15.20;99.90
15749;DHT22;7976;52.526;13.326;2023-08-31T03:30:17;15.20;99.90
15749;DHT22;7976;52.526;13.326;2023-08-31T03:32:44;15.20;99.90
15749;DHT22;7976;52.526;13.326;2023-08-31T03:35:11;15.20;99.90
15749;DHT22;7976;52.526;13.326;2023-08-31T03:37:39;15.20;99.90
15749;DHT22;7976;52.526;13.326;2023-08-31T03:40:07;15.20;99.90
15749;DHT22;7976;52.526;13.326;2023-08-31T03:42:35;15.30;99.90
15749;DHT22;7976;52.526;13.326;2023-08-31T03:45:02;15.30;99.90
15749;DHT22;7976;52.526;13.326;2023-08-31T03:47:29;15.30;99.90
15749;DHT22;7976;52.526;13.326;2023-08-31T03:49:56;15.30;99.90
15749;DHT22;7976;52.526;13.326;2023-08-31T03:52:23;15.30;99.90
15749;DHT22;7976;52.526;13.326;2023-08-31T03:54:52;15.30;99.90
15749;DHT22;7976;52.526;13.326;2023-08-31T03:57:18;15.30;99.90
15749;DHT22;7976;52.526;13.326;2023-08-31T03:59:45;15.30;99.90
15749;DHT22;7976;52.526;13.326;2023-08-31T04:02:12;15.20;99.90
15749;DHT22;7976;52.526;13.326;2023-08-31T04:04:40;15.20;99.90
15749;DHT22;7976;52.526;13.326;2023-08-31T04:07:07;15.20;99.90
15749;DHT22;7976;52.526;13.326;2023-08-31T04:09:33;15.20;99.90
15749;DHT22;7976;52.526;13.326;2023-08-31T04:12:02;15.10;99.90
15749;DHT22;7976;52.526;13.326;2023-08-31T04:14:30;15.10;99.90
15749;DHT22;7976;52.526;13.326;2023-08-31T04:16:57;15.10;99.90
15749;DHT22;7976;52.526;13.326;2023-08-31T04:19:24;15.00;99.90
15749;DHT22;7976;52.526;13.326;2023-08-31T04:21:51;15.00;99.90
15749;DHT22;7976;52.526;13.326;2023-08-31T04:24:18;15.00;99.90
15749;DHT22;7976;52.526;13.326;2023-08-31T04:26:45;14.90;99.90
15749;DHT22;7976;52.526;13.326;2023-08-31T04:29:14;14.90;99.90
15749;DHT22;7976;52.526;13.326;2023-08-31T04:31:41;14.90;99.90
15749;DHT22;7976;52.526;13.326;2023-08-31T04:34:08;14.90;99.90
15749;DHT22;7976;52.526;13.326;2023-08-31T04:36:35;14.90;99.90
15749;DHT22;7976;52.526;13.326;2023-08-31T04:39:02;14.90;99.90
15749;DHT22;7976;52.526;13.326;2023-08-31T04:41:30;14.90;99.90
15749;DHT22;7976;52.526;13.326;2023-08-31T04:43:57;14.90;99.90
15749;DHT22;7976;52.526;13.326;2023-08-31T04:46:25;14.90;99.90
15749;DHT22;7976;52.526;13.326;2023-08-31T04:48:52;14.90;99.90
15749;DHT22;7976;52.526;13.326;2023-08-31T04:51:32;14.90;99.90
15749;DHT22;7976;52.526;13.326;2023-08-31T04:54:02;14.90;99.90
15749;DHT22;7976;52.526;13.326;2023-08-31T04:56:31;14.80;99.90
15749;DHT22;7976;52.526;13.326;2023-08-31T04:58:59;14.80;99.90
15749;DHT22;7976;52.526;13.326;2023-08-31T05:01:28;14.80;99.90
15749;DHT22;7976;52.526;13.326;2023-08-31T05:03:55;14.80;99.90
15749;DHT22;7976;52.526;13.326;2023-08-31T05:06:23;14.80;99.90
15749;DHT22;7976;52.526;13.326;2023-08-31T05:08:49;14.80;99.90
15749;DHT22;7976;52.526;13.326;2023-08-31T05:11:16;14.80;99.90
15749;DHT22;7976;52.526;13.326;2023-08-31T05:13:44;14.80;99.90
15749;DHT22;7976;52.526;13.326;2023-08-31T05:16:11;14.80;99.90
15749;DHT22;7976;52.526;13.326;2023-08-31T05:18:39;14.90;99.90
15749;DHT22;7976;52.526;13.326;2023-08-31T05:21:06;14.90;99.90
15749;DHT22;7976;52.526;13.326;2023-08-31T05:23:33;15.00;99.90
15749;DHT22;7976;52.526;13.326;2023-08-31T05:26:00;15.00;99.90
15749;DHT22;7976;52.526;13.326;2023-08-31T05:28:30;15.00;99.90
15749;DHT22;7976;52.526;13.326;2023-08-31T05:30:57;15.10;99.90
15749;DHT22;7976;52.526;13.326;2023-08-31T05:33:26;15.10;99.90
15749;DHT22;7976;52.526;13.326;2023-08-31T05:35:56;15.10;99.90
15749;DHT22;7976;52.526;13.326;2023-08-31T05:38:23;15.10;99.90
15749;DHT22;7976;52.526;13.326;2023-08-31T05:40:50;15.10;99.90
15749;DHT22;7976;52.526;13.326;2023-08-31T05:43:16;15.10;99.90
15749;DHT22;7976;52.526;13.326;2023-08-31T05:45:43;15.10;99.90
15749;DHT22;7976;52.526;13.326;2023-08-31T05:48:12;15.10;99.90
15749;DHT22;7976;52.526;13.326;2023-08-31T05:50:39;15.10;99.90
15749;DHT22;7976;52.526;13.326;2023-08-31T05:53:10;15.20;99.90
15749;DHT22;7976;52.526;13.326;2023-08-31T05:55:36;15.20;99.90
15749;DHT22;7976;52.526;13.326;2023-08-31T05:58:04;15.20;99.90
15749;DHT22;7976;52.526;13.326;2023-08-31T06:00:31;15.20;99.90
15749;DHT22;7976;52.526;13.326;2023-08-31T06:02:57;15.20;99.90
15749;DHT22;7976;52.526;13.326;2023-08-31T06:05:24;15.20;99.90
15749;DHT22;7976;52.526;13.326;2023-08-31T06:07:52;15.20;99.90
15749;DHT22;7976;52.526;13.326;2023-08-31T06:10:21;15.30;99.90
15749;DHT22;7976;52.526;13.326;2023-08-31T06:12:48;15.30;99.90
15749;DHT22;7976;52.526;13.326;2023-08-31T06:15:16;15.30;99.90
15749;DHT22;7976;52.526;13.326;2023-08-31T06:17:43;15.30;99.90
15749;DHT22;7976;52.526;13.326;2023-08-31T06:20:11;15.40;99.90
15749;DHT22;7976;52.526;13.326;2023-08-31T06:22:38;15.40;99.90
15749;DHT22;7976;52.526;13.326;2023-08-31T06:25:05;15.40;99.90
15749;DHT22;7976;52.526;13.326;2023-08-31T06:27:35;15.40;99.90
15749;DHT22;7976;52.526;13.326;2023-08-31T06:30:02;15.40;99.90
15749;DHT22;7976;52.526;13.326;2023-08-31T06:32:30;15.40;99.90
15749;DHT22;7976;52.526;13.326;2023-08-31T06:34:56;15.40;99.90
15749;DHT22;7976;52.526;13.326;2023-08-31T06:37:23;15.40;99.90
15749;DHT22;7976;52.526;13.326;2023-08-31T06:39:50;15.40;99.90
15749;DHT22;7976;52.526;13.326;2023-08-31T06:42:17;15.40;99.90
15749;DHT22;7976;52.526;13.326;2023-08-31T06:44:46;15.50;99.90
15749;DHT22;7976;52.526;13.326;2023-08-31T06:47:12;15.60;99.90
15749;DHT22;7976;52.526;13.326;2023-08-31T06:49:42;15.60;99.90
15749;DHT22;7976;52.526;13.326;2023-08-31T06:52:09;15.60;99.90
15749;DHT22;7976;52.526;13.326;2023-08-31T06:54:36;15.60;99.90
15749;DHT22;7976;52.526;13.326;2023-08-31T06:57:03;15.60;99.90
15749;DHT22;7976;52.526;13.326;2023-08-31T06:59:34;15.60;99.90
15749;DHT22;7976;52.526;13.326;2023-08-31T07:02:05;15.60;99.90
15749;DHT22;7976;52.526;13.326;2023-08-31T07:04:32;15.60;99.90
15749;DHT22;7976;52.526;13.326;2023-08-31T07:06:59;15.60;99.90
15749;DHT22;7976;52.526;13.326;2023-08-31T07:09:26;15.60;99.90
15749;DHT22;7976;52.526;13.326;2023-08-31T07:11:53;15.60;99.90
15749;DHT22;7976;52.526;13.326;2023-08-31T07:14:23;15.60;99.90
15749;DHT22;7976;52.526;13.326;2023-08-31T07:16:51;15.70;99.90
15749;DHT22;7976;52.526;13.326;2023-08-31T07:19:22;15.70;99.90
15749;DHT22;7976;52.526;13.326;2023-08-31T07:21:50;15.70;99.90
15749;DHT22;7976;52.526;13.326;2023-08-31T07:24:17;15.70;99.90
15749;DHT22;7976;52.526;13.326;2023-08-31T07:26:46;15.70;99.90
15749;DHT22;7976;52.526;13.326;2023-08-31T07:29:14;15.70;99.90
15749;DHT22;7976;52.526;13.326;2023-08-31T07:31:41;15.80;99.90
15749;DHT22;7976;52.526;13.326;2023-08-31T07:34:08;15.70;99.90
15749;DHT22;7976;52.526;13.326;2023-08-31T07:36:37;15.70;99.90
15749;DHT22;7976;52.526;13.326;2023-08-31T07:39:05;15.70;99.90
15749;DHT22;7976;52.526;13.326;2023-08-31T07:41:32;15.70;99.90
15749;DHT22;7976;52.526;13.326;2023-08-31T07:43:59;15.70;99.90
15749;DHT22;7976;52.526;13.326;2023-08-31T07:46:26;15.70;99.90
15749;DHT22;7976;52.526;13.326;2023-08-31T07:48:53;15.70;99.90
15749;DHT22;7976;52.526;13.326;2023-08-31T07:51:22;15.70;99.90
15749;DHT22;7976;52.526;13.326;2023-08-31T07:53:55;15.70;99.90
15749;DHT22;7976;52.526;13.326;2023-08-31T07:56:22;15.70;99.90
15749;DHT22;7976;52.526;13.326;2023-08-31T07:58:49;15.70;99.90
15749;DHT22;7976;52.526;13.326;2023-08-31T08:01:16;15.70;99.90
15749;DHT22;7976;52.526;13.326;2023-08-31T08:03:43;15.70;99.90
15749;DHT22;7976;52.526;13.326;2023-08-31T08:06:10;15.70;99.90
15749;DHT22;7976;52.526;13.326;2023-08-31T08:08:37;15.70;99.90
15749;DHT22;7976;52.526;13.326;2023-08-31T08:11:05;15.70;99.90
15749;DHT22;7976;52.526;13.326;2023-08-31T08:13:32;15.80;99.90
15749;DHT22;7976;52.526;13.326;2023-08-31T08:15:59;15.80;99.90
15749;DHT22;7976;52.526;13.326;2023-08-31T08:18:26;15.90;99.90
15749;DHT22;7976;52.526;13.326;2023-08-31T08:20:53;15.90;99.90
15749;DHT22;7976;52.526;13.326;2023-08-31T08:23:20;16.00;99.90
15749;DHT22;7976;52.526;13.326;2023-08-31T08:25:47;16.00;99.90
15749;DHT22;7976;52.526;13.326;2023-08-31T08:28:15;16.10;99.90
15749;DHT22;7976;52.526;13.326;2023-08-31T08:30:42;16.10;99.90
15749;DHT22;7976;52.526;13.326;2023-08-31T08:33:09;16.10;99.90
15749;DHT22;7976;52.526;13.326;2023-08-31T08:35:37;16.20;99.90
15749;DHT22;7976;52.526;13.326;2023-08-31T08:38:04;16.20;99.90
15749;DHT22;7976;52.526;13.326;2023-08-31T08:40:32;16.40;99.90
15749;DHT22;7976;52.526;13.326;2023-08-31T08:43:00;16.40;99.90
15749;DHT22;7976;52.526;13.326;2023-08-31T08:45:35;16.40;99.90
15749;DHT22;7976;52.526;13.326;2023-08-31T08:48:06;16.40;99.90
15749;DHT22;7976;52.526;13.326;2023-08-31T08:50:35;16.40;99.90
15749;DHT22;7976;52.526;13.326;2023-08-31T08:53:03;16.40;99.90
15749;DHT22;7976;52.526;13.326;2023-08-31T08:55:31;16.30;99.90
15749;DHT22;7976;52.526;13.326;2023-08-31T08:57:59;16.30;99.90
15749;DHT22;7976;52.526;13.326;2023-08-31T09:00:26;16.20;99.90
15749;DHT22;7976;52.526;13.326;2023-08-31T09:02:55;16.30;99.90
15749;DHT22;7976;52.526;13.326;2023-08-31T09:05:22;16.40;99.90
15749;DHT22;7976;52.526;13.326;2023-08-31T09:08:03;16.50;99.90
15749;DHT22;7976;52.526;13.326;2023-08-31T09:10:36;16.70;99.90
15749;DHT22;7976;52.526;13.326;2023-08-31T09:13:07;16.80;99.90
15749;DHT22;7976;52.526;13.326;2023-08-31T09:15:42;16.90;99.90
15749;DHT22;7976;52.526;13.326;2023-08-31T09:18:17;17.00;99.90
15749;DHT22;7976;52.526;13.326;2023-08-31T09:20:49;17.10;99.90
15749;DHT22;7976;52.526;13.326;2023-08-31T09:23:17;17.20;99.90
15749;DHT22;7976;52.526;13.326;2023-08-31T09:25:45;17.20;99.90
15749;DHT22;7976;52.526;13.326;2023-08-31T09:28:14;17.10;99.90
15749;DHT22;7976;52.526;13.326;2023-08-31T09:30:42;17.10;99.90
15749;DHT22;7976;52.526;13.326;2023-08-31T09:33:12;16.90;99.90
15749;DHT22;7976;52.526;13.326;2023-08-31T09:35:48;16.90;99.90
15749;DHT22;7976;52.526;13.326;2023-08-31T09:38:17;16.80;99.90
15749;DHT22;7976;52.526;13.326;2023-08-31T09:40:44;16.70;99.90
15749;DHT22;7976;52.526;13.326;2023-08-31T09:43:11;16.80;99.90
15749;DHT22;7976;52.526;13.326;2023-08-31T09:45:39;16.90;99.90
15749;DHT22;7976;52.526;13.326;2023-08-31T09:48:06;17.00;99.90
15749;DHT22;7976;52.526;13.326;2023-08-31T09:50:33;17.10;99.90
15749;DHT22;7976;52.526;13.326;2023-08-31T09:53:04;17.30;99.90
15749;DHT22;7976;52.526;13.326;2023-08-31T09:55:32;17.40;99.90
15749;DHT22;7976;52.526;13.326;2023-08-31T09:58:00;17.40;99.90
15749;DHT22;7976;52.526;13.326;2023-08-31T10:00:30;17.50;99.90
15749;DHT22;7976;52.526;13.326;2023-08-31T10:02:59;17.60;99.90
15749;DHT22;7976;52.526;13.326;2023-08-31T10:05:28;17.70;99.90
15749;DHT22;7976;52.526;13.326;2023-08-31T10:07:57;17.80;99.90
15749;DHT22;7976;52.526;13.326;2023-08-31T10:10:27;18.00;99.90
15749;DHT22;7976;52.526;13.326;2023-08-31T10:12:55;18.10;99.90
15749;DHT22;7976;52.526;13.326;2023-08-31T10:15:28;18.30;99.90
15749;DHT22;7976;52.526;13.326;2023-08-31T10:17:59;18.40;99.90
15749;DHT22;7976;52.526;13.326;2023-08-31T10:20:27;18.50;99.90
15749;DHT22;7976;52.526;13.326;2023-08-31T10:22:57;18.50;99.90
15749;DHT22;7976;52.526;13.326;2023-08-31T10:25:25;18.40;99.90
15749;DHT22;7976;52.526;13.326;2023-08-31T10:28:39;18.30;99.90
15749;DHT22;7976;52.526;13.326;2023-08-31T10:31:08;18.10;99.90
15749;DHT22;7976;52.526;13.326;2023-08-31T10:33:39;17.90;99.90
15749;DHT22;7976;52.526;13.326;2023-08-31T10:36:11;17.50;99.90
15749;DHT22;7976;52.526;13.326;2023-08-31T10:38:39;17.00;99.90
15749;DHT22;7976;52.526;13.326;2023-08-31T10:41:22;16.50;99.90
15749;DHT22;7976;52.526;13.326;2023-08-31T10:43:52;16.20;99.90
15749;DHT22;7976;52.526;13.326;2023-08-31T10:46:28;15.80;99.90
15749;DHT22;7976;52.526;13.326;2023-08-31T10:48:57;15.60;99.90
15749;DHT22;7976;52.526;13.326;2023-08-31T10:51:27;15.50;99.90
15749;DHT22;7976;52.526;13.326;2023-08-31T10:54:09;15.40;99.90
15749;DHT22;7976;52.526;13.326;2023-08-31T10:57:02;15.40;99.90
15749;DHT22;7976;52.526;13.326;2023-08-31T10:59:50;15.40;99.90
15749;DHT22;7976;52.526;13.326;2023-08-31T11:02:34;15.40;99.90
15749;DHT22;7976;52.526;13.326;2023-08-31T11:05:06;15.40;99.90
15749;DHT22;7976;52.526;13.326;2023-08-31T11:07:35;15.40;99.90
15749;DHT22;7976;52.526;13.326;2023-08-31T11:10:08;15.50;99.90
15749;DHT22;7976;52.526;13.326;2023-08-31T11:12:38;15.60;99.90
15749;DHT22;7976;52.526;13.326;2023-08-31T11:15:06;15.60;99.90
15749;DHT22;7976;52.526;13.326;2023-08-31T11:17:34;15.70;99.90
15749;DHT22;7976;52.526;13.326;2023-08-31T11:20:01;15.90;99.90
15749;DHT22;7976;52.526;13.326;2023-08-31T11:22:31;16.10;99.90
15749;DHT22;7976;52.526;13.326;2023-08-31T11:24:58;16.30;99.90
15749;DHT22;7976;52.526;13.326;2023-08-31T11:27:26;16.40;99.90
15749;DHT22;7976;52.526;13.326;2023-08-31T11:29:54;16.50;99.90
15749;DHT22;7976;52.526;13.326;2023-08-31T11:32:23;16.60;99.90
15749;DHT22;7976;52.526;13.326;2023-08-31T11:34:50;16.60;99.90
15749;DHT22;7976;52.526;13.326;2023-08-31T11:37:17;16.50;99.90
15749;DHT22;7976;52.526;13.326;2023-08-31T11:39:49;16.40;99.90
15749;DHT22;7976;52.526;13.326;2023-08-31T11:42:17;16.30;99.90
15749;DHT22;7976;52.526;13.326;2023-08-31T11:44:46;16.30;99.90
15749;DHT22;7976;52.526;13.326;2023-08-31T11:47:16;16.10;99.90
15749;DHT22;7976;52.526;13.326;2023-08-31T11:49:44;16.10;99.90
15749;DHT22;7976;52.526;13.326;2023-08-31T11:52:13;16.00;99.90
15749;DHT22;7976;52.526;13.326;2023-08-31T11:54:42;15.90;99.90
15749;DHT22;7976;52.526;13.326;2023-08-31T11:57:09;15.90;99.90
15749;DHT22;7976;52.526;13.326;2023-08-31T11:59:38;15.80;99.90
15749;DHT22;7976;52.526;13.326;2023-08-31T12:02:06;15.80;99.90
15749;DHT22;7976;52.526;13.326;2023-08-31T12:04:41;15.80;99.90
15749;DHT22;7976;52.526;13.326;2023-08-31T12:07:10;15.90;99.90
15749;DHT22;7976;52.526;13.326;2023-08-31T12:09:37;16.00;99.90
15749;DHT22;7976;52.526;13.326;2023-08-31T12:12:05;16.10;99.90
15749;DHT22;7976;52.526;13.326;2023-08-31T12:14:37;16.10;99.90
15749;DHT22;7976;52.526;13.326;2023-08-31T12:17:06;16.20;99.90
15749;DHT22;7976;52.526;13.326;2023-08-31T12:19:38;16.30;99.90
15749;DHT22;7976;52.526;13.326;2023-08-31T12:22:05;16.40;99.90
15749;DHT22;7976;52.526;13.326;2023-08-31T12:24:38;16.40;99.90
15749;DHT22;7976;52.526;13.326;2023-08-31T12:27:06;16.50;99.90
15749;DHT22;7976;52.526;13.326;2023-08-31T12:29:33;16.50;99.90
15749;DHT22;7976;52.526;13.326;2023-08-31T12:31:59;16.60;99.90
15749;DHT22;7976;52.526;13.326;2023-08-31T12:34:26;16.60;99.90
15749;DHT22;7976;52.526;13.326;2023-08-31T12:36:55;16.70;99.90
15749;DHT22;7976;52.526;13.326;2023-08-31T12:39:25;16.70;99.90
15749;DHT22;7976;52.526;13.326;2023-08-31T12:41:52;16.80;99.90
15749;DHT22;7976;52.526;13.326;2023-08-31T12:44:19;16.90;99.90
15749;DHT22;7976;52.526;13.326;2023-08-31T12:46:46;17.00;99.90
15749;DHT22;7976;52.526;13.326;2023-08-31T12:49:13;17.00;99.90
15749;DHT22;7976;52.526;13.326;2023-08-31T12:51:43;17.10;99.90
15749;DHT22;7976;52.526;13.326;2023-08-31T12:54:11;17.20;99.90
15749;DHT22;7976;52.526;13.326;2023-08-31T12:56:40;17.30;99.90
15749;DHT22;7976;52.526;13.326;2023-08-31T12:59:07;17.40;99.90
15749;DHT22;7976;52.526;13.326;2023-08-31T13:01:34;17.40;99.90
15749;DHT22;7976;52.526;13.326;2023-08-31T13:04:01;17.40;99.90
15749;DHT22;7976;52.526;13.326;2023-08-31T13:06:28;17.40;99.90
15749;DHT22;7976;52.526;13.326;2023-08-31T13:08:55;17.40;99.90
15749;DHT22;7976;52.526;13.326;2023-08-31T13:11:24;17.40;99.90
15749;DHT22;7976;52.526;13.326;2023-08-31T13:13:51;17.40;99.90
15749;DHT22;7976;52.526;13.326;2023-08-31T13:16:18;17.50;99.90
15749;DHT22;7976;52.526;13.326;2023-08-31T13:18:45;17.60;99.90
15749;DHT22;7976;52.526;13.326;2023-08-31T13:21:11;17.60;99.90
15749;DHT22;7976;52.526;13.326;2023-08-31T13:23:38;17.60;99.90
15749;DHT22;7976;52.526;13.326;2023-08-31T13:26:08;17.60;99.90
15749;DHT22;7976;52.526;13.326;2023-08-31T13:28:45;17.50;99.90
15749;DHT22;7976;52.526;13.326;2023-08-31T13:31:11;17.50;99.90
15749;DHT22;7976;52.526;13.326;2023-08-31T13:33:38;17.50;99.90
15749;DHT22;7976;52.526;13.326;2023-08-31T13:36:05;17.40;99.90
15749;DHT22;7976;52.526;13.326;2023-08-31T13:38:34;17.30;99.90
15749;DHT22;7976;52.526;13.326;2023-08-31T13:41:01;17.20;99.90
15749;DHT22;7976;52.526;13.326;2023-08-31T13:43:28;17.20;99.90
15749;DHT22;7976;52.526;13.326;2023-08-31T13:45:57;17.20;99.90
15749;DHT22;7976;52.526;13.326;2023-08-31T13:48:24;17.20;99.90
15749;DHT22;7976;52.526;13.326;2023-08-31T13:50:50;17.20;99.90
15749;DHT22;7976;52.526;13.326;2023-08-31T13:53:17;17.20;99.90
15749;DHT22;7976;52.526;13.326;2023-08-31T13:55:44;17.20;99.90
15749;DHT22;7976;52.526;13.326;2023-08-31T13:58:11;17.20;99.90
15749;DHT22;7976;52.526;13.326;2023-08-31T14:00:39;17.30;99.90
15749;DHT22;7976;52.526;13.326;2023-08-31T14:03:08;17.30;99.90
15749;DHT22;7976;52.526;13.326;2023-08-31T14:05:35;17.40;99.90
15749;DHT22;7976;52.526;13.326;2023-08-31T14:08:02;17.30;99.90
15749;DHT22;7976;52.526;13.326;2023-08-31T14:10:30;17.30;99.90
15749;DHT22;7976;52.526;13.326;2023-08-31T14:12:58;17.30;99.90
15749;DHT22;7976;52.526;13.326;2023-08-31T14:15:25;17.30;99.90
15749;DHT22;7976;52.526;13.326;2023-08-31T14:17:51;17.30;99.90
15749;DHT22;7976;52.526;13.326;2023-08-31T14:20:20;17.40;99.90
15749;DHT22;7976;52.526;13.326;2023-08-31T14:22:47;17.50;99.90
15749;DHT22;7976;52.526;13.326;2023-08-31T14:25:16;17.50;99.90
15749;DHT22;7976;52.526;13.326;2023-08-31T14:27:43;17.50;99.90
15749;DHT22;7976;52.526;13.326;2023-08-31T14:30:10;17.40;99.90
15749;DHT22;7976;52.526;13.326;2023-08-31T14:32:37;17.40;99.90
15749;DHT22;7976;52.526;13.326;2023-08-31T14:35:05;17.40;99.90
15749;DHT22;7976;52.526;13.326;2023-08-31T14:37:34;17.20;99.90
15749;DHT22;7976;52.526;13.326;2023-08-31T14:40:01;17.20;99.90
15749;DHT22;7976;52.526;13.326;2023-08-31T14:42:28;17.10;99.90
15749;DHT22;7976;52.526;13.326;2023-08-31T14:44:55;17.00;99.90
15749;DHT22;7976;52.526;13.326;2023-08-31T14:47:22;17.00;99.90
15749;DHT22;7976;52.526;13.326;2023-08-31T14:49:49;16.90;99.90
15749;DHT22;7976;52.526;13.326;2023-08-31T14:52:16;16.90;99.90
15749;DHT22;7976;52.526;13.326;2023-08-31T14:54:44;16.80;99.90
15749;DHT22;7976;52.526;13.326;2023-08-31T14:57:11;16.80;99.90
15749;DHT22;7976;52.526;13.326;2023-08-31T14:59:38;16.70;99.90
15749;DHT22;7976;52.526;13.326;2023-08-31T15:02:05;16.60;99.90
15749;DHT22;7976;52.526;13.326;2023-08-31T15:04:32;16.60;99.90
15749;DHT22;7976;52.526;13.326;2023-08-31T15:06:59;16.60;99.90
15749;DHT22;7976;52.526;13.326;2023-08-31T15:09:26;16.50;99.90
15749;DHT22;7976;52.526;13.326;2023-08-31T15:11:55;16.50;99.90
15749;DHT22;7976;52.526;13.326;2023-08-31T15:14:22;16.50;99.90
15749;DHT22;7976;52.526;13.326;2023-08-31T15:16:49;16.40;99.90
15749;DHT22;7976;52.526;13.326;2023-08-31T15:19:15;16.40;99.90
15749;DHT22;7976;52.526;13.326;2023-08-31T15:21:42;16.40;99.90
15749;DHT22;7976;52.526;13.326;2023-08-31T15:24:09;16.50;99.90
15749;DHT22;7976;52.526;13.326;2023-08-31T15:26:36;16.50;99.90
15749;DHT22;7976;52.526;13.326;2023-08-31T15:29:04;16.50;99.90
15749;DHT22;7976;52.526;13.326;2023-08-31T15:31:31;16.50;99.90
15749;DHT22;7976;52.526;13.326;2023-08-31T15:33:59;16.50;99.90
15749;DHT22;7976;52.526;13.326;2023-08-31T15:36:28;16.50;99.90
15749;DHT22;7976;52.526;13.326;2023-08-31T15:38:55;16.40;99.90